Moffit, North Dakota
Current Conditions -  °F | °C
As of 9:52 AM on Saturday 25 Oct 2014 (Local Time) from KBIS Reporting Station
Clear Clear  
Wind Chill: 47°   Ceiling: Unl
Heat Index: 47°   Visibility: 10mi
Dew Point: 34°   Wind: 3mph
Humidity: 61%   Direction: 170°S
Pressure: 30.18"   Gusts: NA
Location:  46.68°N, 100.3°W
Report Text: KBIS 251452Z 17003KT 10SM CLR 08/01 A3018 RMK AO2 SLP227 T00830011 51018
Loading
Personal Weather Stations






























Interactive Weather Map
Tropical Storm Tracking
New forecast layout! Learn more

10-Day Weather Forecast

Advertisements
Track Severe Weather on mobile